Time;durP1;ratioP1;P1;durP2;ratioP2;P2;SDS_P1;SDS_P2;PMS_P1;PMS_P2;Temp;Humidity;BMP_temperature;BMP_pressure;BME280_temperature;BME280_humidity;BME280_pressure;Samples;Min_cycle;Max_cycle;Signal;HPM_P1;HPM_P2
2021/09/03 05:16:38;;;;;;;19.88;13.25;;;10.80;75.30;;;;;;5233083;23;20059;-90
2021/09/03 05:19:04;;;;;;;21.75;13.98;;;10.90;75.40;;;;;;4884514;29;20059;-90
2021/09/03 05:21:30;;;;;;;24.67;16.00;;;10.90;75.50;;;;;;4901418;29;20465;-90
2021/09/03 05:23:55;;;;;;;27.77;17.67;;;11.00;75.60;;;;;;4884018;29;20115;-90
2021/09/03 05:26:22;;;;;;;31.35;18.17;;;11.00;76.20;;;;;;4883974;29;20540;-90
2021/09/03 05:28:47;;;;;;;29.15;18.23;;;11.00;75.60;;;;;;4883900;29;20056;-90
2021/09/03 05:31:13;;;;;;;29.38;18.17;;;11.10;75.60;;;;;;4884289;29;20127;-89
2021/09/03 05:33:39;;;;;;;26.13;16.25;;;11.10;75.60;;;;;;4869299;29;20055;-89
2021/09/03 05:36:04;;;;;;;31.45;20.00;;;11.10;75.60;;;;;;4884313;29;20136;-90
2021/09/03 05:38:30;;;;;;;34.53;20.48;;;11.20;75.70;;;;;;4884163;29;20548;-90
2021/09/03 05:40:56;;;;;;;34.53;20.38;;;11.20;75.80;;;;;;4884847;29;20096;-90
2021/09/03 05:43:24;;;;;;;38.00;21.00;;;11.30;75.80;;;;;;4884607;29;20119;-90
2021/09/03 05:45:49;;;;;;;34.08;21.13;;;11.30;75.90;;;;;;4868548;29;20155;-90
2021/09/03 05:48:15;;;;;;;32.80;20.52;;;11.40;76.10;;;;;;4869028;29;20508;-89
2021/09/03 05:50:41;;;;;;;30.63;19.38;;;11.40;76.10;;;;;;4883527;29;20485;-89
2021/09/03 05:53:07;;;;;;;30.95;18.70;;;11.40;76.00;;;;;;4868392;29;20040;-89
2021/09/03 05:55:32;;;;;;;34.88;18.33;;;11.50;76.10;;;;;;4883535;29;20496;-89
2021/09/03 05:58:02;;;;;;;32.00;21.10;;;11.60;77.00;;;;;;4887889;29;20037;-89
2021/09/03 06:00:28;;;;;;;28.63;18.00;;;11.60;76.40;;;;;;4893823;29;20025;-88
2021/09/03 06:02:54;;;;;;;30.08;19.95;;;11.70;76.50;;;;;;4894435;29;20035;-84
2021/09/03 06:05:19;;;;;;;33.25;20.17;;;11.80;76.50;;;;;;4907745;29;20056;-85
2021/09/03 06:07:45;;;;;;;29.98;19.50;;;11.90;76.70;;;;;;4883404;29;20044;-85
2021/09/03 06:10:11;;;;;;;25.88;17.15;;;11.90;76.60;;;;;;4898828;29;20029;-86
2021/09/03 06:12:37;;;;;;;25.08;16.63;;;12.00;77.10;;;;;;4881934;29;20131;-86
2021/09/03 06:15:05;;;;;;;21.27;14.70;;;12.10;77.20;;;;;;4875021;29;20031;-86
2021/09/03 06:17:31;;;;;;;23.45;15.35;;;12.30;77.20;;;;;;4846308;29;20081;-85
2021/09/03 06:19:56;;;;;;;20.60;15.30;;;12.30;77.20;;;;;;4846070;29;20037;-92
2021/09/03 06:22:30;;;;;;;25.42;16.25;;;12.40;77.10;;;;;;4845717;29;20029;-88
2021/09/03 06:24:56;;;;;;;29.10;20.20;;;12.50;77.10;;;;;;4849474;29;20116;-87
2021/09/03 06:27:23;;;;;;;22.15;16.15;;;12.60;77.20;;;;;;4863917;29;20029;-87
2021/09/03 06:29:48;;;;;;;17.92;13.68;;;12.70;77.50;;;;;;4880228;29;20029;-87
2021/09/03 06:32:17;;;;;;;20.73;14.65;;;12.80;77.90;;;;;;4863531;29;20489;-87
2021/09/03 06:34:44;;;;;;;18.35;13.70;;;13.00;77.90;;;;;;4863434;29;20036;-86
2021/09/03 06:37:10;;;;;;;18.60;13.05;;;13.10;77.50;;;;;;4879916;29;20017;-87
2021/09/03 06:39:36;;;;;;;18.65;13.95;;;13.20;77.70;;;;;;4863172;29;20025;-84
2021/09/03 06:42:04;;;;;;;15.98;12.10;;;13.30;77.60;;;;;;4847603;29;20029;-84
2021/09/03 06:44:30;;;;;;;23.45;15.40;;;13.40;77.80;;;;;;4862871;29;20021;-83
2021/09/03 06:46:56;;;;;;;16.30;12.55;;;13.40;77.50;;;;;;4879326;29;20021;-83
2021/09/03 06:49:22;;;;;;;23.02;15.77;;;13.60;77.70;;;;;;4879619;29;20028;-83
2021/09/03 06:51:48;;;;;;;18.88;13.35;;;13.60;77.70;;;;;;4879549;29;20040;-83
2021/09/03 06:54:14;;;;;;;19.33;13.15;;;13.70;77.80;;;;;;4879094;29;20393;-83
2021/09/03 06:56:40;;;;;;;17.70;12.57;;;13.80;77.70;;;;;;4862476;29;20025;-83
2021/09/03 06:59:05;;;;;;;18.67;12.30;;;13.90;78.10;;;;;;4880459;29;20121;-86
2021/09/03 07:01:37;;;;;;;16.00;11.10;;;14.00;77.90;;;;;;4863644;29;20028;-84
2021/09/03 07:04:02;;;;;;;14.68;11.10;;;14.10;77.80;;;;;;4880017;29;20145;-89
2021/09/03 07:06:28;;;;;;;16.42;10.93;;;14.20;77.70;;;;;;4863820;29;20029;-87
2021/09/03 07:09:33;;;;;;;14.93;10.95;;;14.30;77.60;;;;;;4864592;29;20029;-88
2021/09/03 07:12:00;;;;;;;14.45;9.75;;;14.30;77.60;;;;;;4855684;29;20079;-89
2021/09/03 07:14:25;;;;;;;15.27;9.32;;;14.40;77.70;;;;;;4864152;29;20509;-89
2021/09/03 07:16:51;;;;;;;12.23;8.48;;;14.50;78.50;;;;;;4860771;29;20103;-89
2021/09/03 07:19:17;;;;;;;12.07;7.95;;;14.60;78.00;;;;;;4881425;29;20075;-88
2021/09/03 07:21:43;;;;;;;12.10;7.90;;;14.80;78.20;;;;;;4882490;29;20047;-88
2021/09/03 07:24:11;;;;;;;11.75;7.88;;;14.90;78.00;;;;;;4882852;29;20033;-88
2021/09/03 07:26:37;;;;;;;11.95;8.05;;;15.00;78.00;;;;;;4882621;29;20060;-89
2021/09/03 07:29:04;;;;;;;12.77;8.13;;;15.10;77.80;;;;;;4882623;29;20048;-88
2021/09/03 07:31:31;;;;;;;13.55;8.90;;;15.10;77.70;;;;;;4882326;29;20033;-89
2021/09/03 07:33:56;;;;;;;12.50;8.95;;;15.20;77.60;;;;;;4882169;29;20441;-88
2021/09/03 07:36:22;;;;;;;13.98;8.32;;;15.30;77.40;;;;;;4898515;29;20103;-85
2021/09/03 07:38:48;;;;;;;14.50;7.80;;;15.30;77.40;;;;;;4897126;29;20033;-84
2021/09/03 07:41:14;;;;;;;11.75;7.85;;;15.30;77.50;;;;;;4881142;29;20075;-84
2021/09/03 07:43:39;;;;;;;13.82;8.15;;;15.50;77.80;;;;;;4881454;29;20454;-84
2021/09/03 07:46:05;;;;;;;13.07;8.15;;;15.60;77.90;;;;;;4896887;29;20161;-85
2021/09/03 07:48:31;;;;;;;12.95;8.35;;;15.70;78.10;;;;;;4881381;29;20037;-84
2021/09/03 07:50:57;;;;;;;13.98;8.75;;;15.80;77.90;;;;;;4881730;29;20473;-85
2021/09/03 07:53:22;;;;;;;11.52;8.05;;;15.90;77.90;;;;;;4898049;29;20037;-85
2021/09/03 07:55:48;;;;;;;11.77;7.47;;;16.10;77.80;;;;;;4866302;29;20029;-85
2021/09/03 07:58:14;;;;;;;11.05;7.15;;;16.20;77.70;;;;;;4866071;29;20051;-85
2021/09/03 08:00:40;;;;;;;12.38;7.03;;;16.20;77.60;;;;;;4881305;29;20043;-85
2021/09/03 08:03:06;;;;;;;11.45;6.45;;;16.30;77.60;;;;;;4865937;29;20504;-84
2021/09/03 08:05:32;;;;;;;13.15;7.00;;;16.40;77.60;;;;;;4898074;29;20040;-84
2021/09/03 08:07:58;;;;;;;10.15;6.65;;;16.50;77.60;;;;;;4884667;29;20034;-85
2021/09/03 08:10:26;;;;;;;10.77;6.20;;;16.60;77.70;;;;;;4885444;29;20080;-88
2021/09/03 08:12:52;;;;;;;11.82;5.90;;;16.80;77.50;;;;;;4886527;29;20085;-88
2021/09/03 08:15:17;;;;;;;10.27;6.55;;;16.80;77.20;;;;;;4886251;29;20025;-88
2021/09/03 08:17:43;;;;;;;12.57;5.65;;;17.00;77.70;;;;;;4886640;29;20044;-88
2021/09/03 08:20:14;;;;;;;8.85;4.93;;;17.10;77.90;;;;;;4886627;29;20037;-88
2021/09/03 08:22:40;;;;;;;10.52;5.38;;;17.20;77.60;;;;;;4886232;29;20035;-88
2021/09/03 08:25:06;;;;;;;10.70;5.03;;;17.40;77.30;;;;;;4871302;29;20119;-88
2021/09/03 08:27:33;;;;;;;10.27;5.07;;;17.40;77.00;;;;;;4869641;29;20036;-88
2021/09/03 08:29:58;;;;;;;9.90;5.30;;;17.60;77.20;;;;;;4878145;29;20037;-88
2021/09/03 08:32:24;;;;;;;10.75;4.72;;;17.60;76.90;;;;;;4866255;29;20040;-87
2021/09/03 08:34:51;;;;;;;8.35;4.18;;;17.80;77.00;;;;;;4866191;29;20025;-87
2021/09/03 08:37:19;;;;;;;8.02;4.43;;;17.90;76.90;;;;;;4882779;29;20038;-89
2021/09/03 08:39:45;;;;;;;9.75;4.93;;;18.00;76.70;;;;;;4884751;29;20045;-88
2021/09/03 08:42:14;;;;;;;9.40;4.90;;;18.10;76.80;;;;;;4884719;29;20025;-90
2021/09/03 08:44:40;;;;;;;9.02;5.20;;;18.30;76.60;;;;;;4889386;29;20034;-89
2021/09/03 08:47:10;;;;;;;9.82;4.63;;;18.40;76.60;;;;;;4903917;29;20028;-90
2021/09/03 08:49:36;;;;;;;9.98;4.55;;;18.50;76.40;;;;;;4903207;29;20028;-89
2021/09/03 08:52:12;;;;;;;9.45;4.82;;;18.70;76.80;;;;;;4903289;29;20031;-90
2021/09/03 08:54:39;;;;;;;9.90;4.35;;;18.90;76.30;;;;;;4903961;29;20028;-90
2021/09/03 08:57:05;;;;;;;8.73;4.38;;;18.90;76.00;;;;;;4904051;29;20434;-87
2021/09/03 08:59:31;;;;;;;9.75;4.80;;;19.10;75.70;;;;;;4887083;29;20032;-89
2021/09/03 09:02:18;;;;;;;10.80;4.50;;;19.20;75.50;;;;;;4887153;29;20041;-86
2021/09/03 09:04:45;;;;;;;9.23;4.10;;;19.30;75.80;;;;;;4902271;29;20043;-85
2021/09/03 09:07:14;;;;;;;8.68;4.57;;;19.40;75.40;;;;;;4902312;29;20031;-88
2021/09/03 09:09:46;;;;;;;8.43;4.07;;;19.60;75.20;;;;;;4903069;29;20142;-89
2021/09/03 09:12:15;;;;;;;8.18;4.13;;;19.70;74.80;;;;;;4919759;29;20105;-88
2021/09/03 09:25:00;;;;;;;;;;;;;;;;;;;;;
2021/09/03 09:28:37;;;;;;;;;;;;;;;;;;;;;
2021/09/03 09:31:53;;;;;;;8.45;3.65;;;20.60;74.10;;;;;;4788819;29;20035;-82
2021/09/03 09:41:57;;;;;;;11.13;4.05;;;21.30;72.80;;;;;;4787193;29;20039;-81
2021/09/03 09:48:57;;;;;;;7.43;3.75;;;21.80;72.80;;;;;;4746855;30;20041;-80
2021/09/03 09:51:45;;;;;;;;;;;;;;;;;;;;;
2021/09/03 09:54:24;;;;;;;7.75;3.35;;;22.30;71.90;;;;;;4772922;30;20511;-80
2021/09/03 09:56:58;;;;;;;9.27;3.60;;;22.50;71.50;;;;;;4841256;29;20044;-80
2021/09/03 09:59:25;;;;;;;;;;;22.70;71.00;;;;;;4840031;29;20202;-80
2021/09/03 10:01:55;;;;;;;6.88;3.25;;;22.90;71.20;;;;;;4850560;29;19908;-79
2021/09/03 10:12:01;;;;;;;7.32;3.40;;;23.60;69.50;;;;;;4817154;29;20117;-86
2021/09/03 10:17:45;;;;;;;7.25;3.17;;;24.20;68.90;;;;;;4841404;29;20045;-90
2021/09/03 10:20:16;;;;;;;7.57;3.45;;;24.50;68.80;;;;;;4826742;29;20128;-83
2021/09/03 10:22:57;;;;;;;;;;;;;;;;;;;;;
2021/09/03 10:25:26;;;;;;;7.72;3.40;;;25.00;67.60;;;;;;4880658;29;20029;-86
2021/09/03 10:28:29;;;;;;;6.82;2.90;;;25.20;67.10;;;;;;4862996;29;20029;-88
2021/09/03 10:31:06;;;;;;;7.13;3.20;;;25.60;66.80;;;;;;4849908;29;20043;-87
2021/09/03 10:33:49;;;;;;;8.52;3.28;;;26.00;67.20;;;;;;4882956;29;20076;-87
2021/09/03 10:40:04;;;;;;;5.32;2.72;;;26.80;65.80;;;;;;4877910;29;20185;-86
2021/09/03 10:42:43;;;;;;;6.93;2.97;;;27.40;65.70;;;;;;4882076;29;20067;-82
2021/09/03 10:45:21;;;;;;;5.32;2.72;;;27.80;64.50;;;;;;4900459;29;20050;-86
2021/09/03 10:48:07;;;;;;;6.03;3.00;;;28.30;64.70;;;;;;4885132;29;20481;-88
2021/09/03 10:50:53;;;;;;;5.47;2.67;;;28.90;63.80;;;;;;4885477;29;20177;-88
2021/09/03 10:53:20;;;;;;;5.00;2.60;;;29.60;62.90;;;;;;4893657;29;20028;-88
2021/09/03 10:56:07;;;;;;;4.55;2.50;;;30.10;61.80;;;;;;4890557;29;20021;-88
2021/09/03 10:59:05;;;;;;;5.22;2.78;;;30.60;60.30;;;;;;4882029;29;20096;-87
2021/09/03 11:01:37;;;;;;;6.25;2.63;;;31.30;60.00;;;;;;4880216;29;20115;-88
2021/09/03 11:04:13;;;;;;;4.75;2.55;;;31.90;58.40;;;;;;4880655;29;20028;-88
2021/09/03 11:07:05;;;;;;;3.47;2.30;;;32.30;57.20;;;;;;4882048;29;20047;-87
2021/09/03 11:09:41;;;;;;;4.65;2.50;;;32.80;56.10;;;;;;4881251;29;20055;-87
2021/09/03 11:12:10;;;;;;;3.60;2.20;;;33.30;55.10;;;;;;4880394;29;20029;-88
2021/09/03 11:14:37;;;;;;;4.90;2.50;;;33.70;53.80;;;;;;4880223;29;20473;-87
2021/09/03 14:12:10;;;;;;;5.55;3.20;;;52.00;23.50;;;;;;4899942;24;20093;-89
2021/09/03 14:14:36;;;;;;;4.15;2.83;;;52.10;23.20;;;;;;4813069;29;20086;-89
2021/09/03 14:17:06;;;;;;;4.80;3.00;;;52.20;22.90;;;;;;4813843;29;20042;-88
2021/09/03 14:19:42;;;;;;;4.18;2.60;;;52.20;22.80;;;;;;4812824;29;20041;-91
2021/09/03 14:22:08;;;;;;;4.25;2.80;;;51.90;22.40;;;;;;4812840;29;20059;-91
2021/09/03 14:24:34;;;;;;;4.47;2.72;;;51.60;22.40;;;;;;4813901;29;20076;-91
2021/09/03 14:31:12;;;;;;;;;;;;;;;;;;;;;
2021/09/03 14:45:50;;;;;;;5.15;2.72;;;49.20;22.10;;;;;;4574615;31;20424;-91
2021/09/03 14:51:28;;;;;;;5.10;2.70;;;48.80;22.20;;;;;;4746718;30;20598;-93
2021/09/03 14:57:51;;;;;;;4.25;2.67;;;48.50;22.30;;;;;;4720185;30;20032;-91
2021/09/03 15:04:33;;;;;;;3.70;2.60;;;48.60;22.30;;;;;;4719124;30;20480;-90
2021/09/03 15:07:55;;;;;;;3.83;2.50;;;48.50;22.10;;;;;;4631610;30;20050;-91
2021/09/03 15:20:48;;;;;;;3.30;2.28;;;48.00;22.60;;;;;;4662509;30;20071;-96
2021/09/03 15:23:23;;;;;;;4.45;2.70;;;47.90;22.50;;;;;;4779695;30;20032;-96
2021/09/03 15:26:30;;;;;;;8.93;5.78;;;48.00;22.50;;;;;;4816512;29;20134;-95
2021/09/03 15:29:06;;;;;;;4.88;2.92;;;48.10;22.20;;;;;;4794417;29;20031;-93
2021/09/03 15:31:51;;;;;;;7.22;4.38;;;48.10;22.40;;;;;;4814447;29;20027;-93
2021/09/03 15:34:20;;;;;;;9.35;6.70;;;48.20;22.30;;;;;;4796367;29;20038;-93
2021/09/03 15:36:47;;;;;;;6.63;3.60;;;48.30;22.20;;;;;;4805834;29;20516;-92
2021/09/03 15:39:14;;;;;;;13.77;9.75;;;48.50;22.30;;;;;;4815806;29;20038;-91
2021/09/03 15:41:40;;;;;;;8.13;4.40;;;48.40;22.10;;;;;;4815068;29;20030;-92
2021/09/03 15:44:07;;;;;;;8.52;4.75;;;48.40;22.10;;;;;;4817328;29;20083;-94
2021/09/03 15:46:34;;;;;;;7.32;3.85;;;48.40;22.00;;;;;;4821125;29;20027;-93
2021/09/03 15:49:10;;;;;;;27.40;20.98;;;48.20;21.90;;;;;;4819382;29;20035;-92
2021/09/03 15:51:35;;;;;;;20.52;13.73;;;48.00;21.80;;;;;;4818021;29;20117;-94
2021/09/03 15:54:07;;;;;;;14.68;8.15;;;47.40;21.80;;;;;;4822003;29;20027;-94
2021/09/03 15:56:39;;;;;;;13.23;7.47;;;46.90;22.20;;;;;;4822708;29;20035;-93
2021/09/03 15:59:05;;;;;;;26.13;17.77;;;46.60;22.30;;;;;;4822432;29;20046;-92
2021/09/03 16:01:48;;;;;;;11.98;7.35;;;46.30;22.50;;;;;;4837759;29;20063;-96
2021/09/03 16:04:17;;;;;;;9.95;6.10;;;45.80;22.30;;;;;;4817752;29;20037;-91
2021/09/03 16:06:46;;;;;;;7.82;4.80;;;45.40;22.50;;;;;;4816231;29;20040;-91
2021/09/03 16:09:12;;;;;;;4.45;2.47;;;45.00;22.50;;;;;;4817432;29;20030;-93
2021/09/03 17:38:25;;;;;;;;;;;;;;;;;;;;;
2021/09/03 18:29:44;;;;;;;8.77;4.07;;;24.00;36.70;;;;;;4794073;24;20058;-82
2021/09/03 18:32:10;;;;;;;9.50;3.58;;;23.90;37.00;;;;;;4751531;30;20051;-81
2021/09/03 18:34:38;;;;;;;8.45;3.55;;;23.70;37.30;;;;;;4775610;30;20084;-81
2021/09/03 18:37:05;;;;;;;8.60;4.13;;;23.50;37.70;;;;;;4765145;30;20043;-81
2021/09/03 18:39:35;;;;;;;9.52;4.35;;;23.30;38.20;;;;;;4743094;30;20047;-81
2021/09/03 18:42:07;;;;;;;9.77;3.97;;;23.20;38.70;;;;;;4756971;30;20032;-82
2021/09/03 18:44:33;;;;;;;9.80;4.68;;;23.10;39.10;;;;;;4757472;30;20070;-82
2021/09/03 18:47:02;;;;;;;7.22;3.67;;;22.90;39.60;;;;;;4757091;30;20465;-82
2021/09/03 18:49:28;;;;;;;10.18;4.45;;;22.80;40.00;;;;;;4756422;30;20031;-81
2021/09/03 18:51:55;;;;;;;9.00;4.32;;;22.60;40.30;;;;;;4755102;30;20123;-82
2021/09/03 18:54:28;;;;;;;13.40;4.53;;;22.50;40.70;;;;;;4755936;30;20031;-82
2021/09/03 18:57:00;;;;;;;9.93;4.93;;;22.40;41.10;;;;;;4756208;30;20339;-81
2021/09/03 18:59:33;;;;;;;9.27;4.70;;;22.20;41.30;;;;;;4755803;30;20118;-81
2021/09/03 19:02:01;;;;;;;9.65;4.57;;;22.00;41.90;;;;;;4755899;30;20031;-80
2021/09/03 19:04:33;;;;;;;10.00;4.65;;;22.00;42.30;;;;;;4756952;30;20060;-81
2021/09/03 19:07:02;;;;;;;8.57;4.35;;;21.80;42.60;;;;;;4756210;30;20492;-82
2021/09/03 19:09:40;;;;;;;10.15;5.30;;;21.70;42.90;;;;;;4761525;30;20031;-82
2021/09/03 19:12:28;;;;;;;9.10;4.68;;;21.60;43.40;;;;;;4758780;30;20036;-82
2021/09/03 19:15:06;;;;;;;10.75;4.95;;;21.40;43.50;;;;;;4788486;30;20561;-81
2021/09/03 19:17:32;;;;;;;9.95;5.60;;;21.30;44.00;;;;;;4759555;30;20035;-81
2021/09/03 19:20:16;;;;;;;11.82;5.50;;;21.20;44.70;;;;;;4773080;30;20074;-81
2021/09/03 19:22:46;;;;;;;11.25;6.93;;;21.10;45.10;;;;;;4773966;30;20039;-81
2021/09/03 19:25:17;;;;;;;10.45;5.88;;;20.90;45.50;;;;;;4774167;30;20571;-80
2021/09/03 19:27:43;;;;;;;10.40;5.95;;;20.90;46.00;;;;;;4774468;30;20035;-81
2021/09/03 19:30:10;;;;;;;12.88;6.25;;;20.70;46.30;;;;;;4773471;30;20051;-80
2021/09/03 19:32:36;;;;;;;10.80;6.43;;;20.70;46.70;;;;;;4777241;30;20374;-81
2021/09/03 19:35:04;;;;;;;10.82;6.03;;;20.50;47.10;;;;;;4777812;30;20039;-80
2021/09/03 19:37:30;;;;;;;10.27;6.15;;;20.40;47.50;;;;;;4764626;30;20070;-80
2021/09/03 19:39:57;;;;;;;10.20;6.05;;;20.40;47.80;;;;;;4779489;30;20396;-81
2021/09/03 19:42:27;;;;;;;9.05;5.30;;;20.20;48.10;;;;;;4779906;30;20036;-82
2021/09/03 19:45:01;;;;;;;10.07;5.72;;;20.10;48.60;;;;;;4782083;30;20052;-83
2021/09/03 19:47:33;;;;;;;9.90;5.70;;;20.00;49.10;;;;;;4764016;30;20038;-80
2021/09/03 19:50:04;;;;;;;9.57;5.63;;;19.90;49.40;;;;;;4795366;30;20087;-80
2021/09/03 19:52:31;;;;;;;10.80;5.97;;;19.90;49.80;;;;;;4795626;30;20031;-81
2021/09/03 19:54:57;;;;;;;10.77;6.60;;;19.70;50.00;;;;;;4795053;30;20489;-81
2021/09/03 19:57:23;;;;;;;10.77;5.47;;;19.70;50.20;;;;;;4777996;30;20039;-81
2021/09/03 19:59:49;;;;;;;10.20;5.85;;;19.60;50.60;;;;;;4790607;30;20392;-82
2021/09/03 20:02:15;;;;;;;9.48;5.68;;;19.50;50.90;;;;;;4789289;29;20031;-81
2021/09/03 20:04:40;;;;;;;10.43;6.28;;;19.50;51.30;;;;;;4790495;30;20074;-81
2021/09/03 20:07:06;;;;;;;10.52;5.85;;;19.30;51.50;;;;;;4791405;30;20125;-81
2021/09/03 20:09:32;;;;;;;11.77;5.80;;;19.20;51.70;;;;;;4760075;30;20031;-82
2021/09/03 20:11:58;;;;;;;10.55;5.60;;;19.20;52.10;;;;;;4775452;30;20058;-82
2021/09/03 20:14:24;;;;;;;9.38;5.38;;;19.30;52.50;;;;;;4774938;30;20031;-81
2021/09/03 20:16:49;;;;;;;10.23;6.30;;;19.00;52.70;;;;;;4760489;30;20065;-81
2021/09/03 20:19:16;;;;;;;11.43;5.68;;;19.00;53.00;;;;;;4791443;30;20069;-83
2021/09/03 20:21:42;;;;;;;10.48;6.25;;;19.10;53.50;;;;;;4792383;30;20434;-83
2021/09/03 20:24:08;;;;;;;10.40;5.90;;;18.90;53.60;;;;;;4776790;30;20126;-84
2021/09/03 20:26:34;;;;;;;9.43;5.80;;;18.90;53.70;;;;;;4761440;30;20085;-86
2021/09/03 20:29:01;;;;;;;11.13;5.93;;;18.80;53.90;;;;;;4775630;30;20096;-84
2021/09/03 20:31:27;;;;;;;11.40;6.38;;;18.70;54.10;;;;;;4773066;30;20035;-84
2021/09/03 20:33:53;;;;;;;12.13;6.60;;;18.60;54.40;;;;;;4775341;30;20036;-85
2021/09/03 20:36:20;;;;;;;10.45;6.60;;;18.60;55.20;;;;;;4776133;30;20046;-86
2021/09/03 20:38:49;;;;;;;10.95;7.10;;;18.40;54.90;;;;;;4763545;30;20043;-85
2021/09/03 20:41:15;;;;;;;10.98;6.53;;;18.50;55.20;;;;;;4766296;30;20051;-85
2021/09/03 20:43:41;;;;;;;10.20;6.20;;;18.40;56.00;;;;;;4779843;30;20031;-86
2021/09/03 20:46:06;;;;;;;10.07;5.82;;;18.20;55.60;;;;;;4780314;30;20104;-85
2021/09/03 20:48:32;;;;;;;9.90;6.15;;;18.20;55.90;;;;;;4775979;30;20101;-85
2021/09/03 20:51:01;;;;;;;9.10;5.85;;;18.20;56.10;;;;;;4761417;30;20039;-86
2021/09/03 20:53:27;;;;;;;12.10;6.68;;;18.10;56.50;;;;;;4760242;30;20032;-86
2021/09/03 20:55:52;;;;;;;14.63;6.18;;;18.00;56.60;;;;;;4761342;30;20050;-85
2021/09/03 20:58:18;;;;;;;11.40;6.38;;;17.90;56.90;;;;;;4775345;30;20092;-86
2021/09/03 21:00:50;;;;;;;12.32;6.50;;;17.80;57.00;;;;;;4775070;30;20035;-84
2021/09/03 21:03:21;;;;;;;10.55;6.55;;;17.80;57.50;;;;;;4774797;30;20530;-86
2021/09/03 21:05:50;;;;;;;11.25;6.22;;;17.80;57.80;;;;;;4775374;30;20069;-85
2021/09/03 21:08:16;;;;;;;10.35;6.40;;;17.80;58.00;;;;;;4775854;30;20062;-86
2021/09/03 21:10:41;;;;;;;11.27;6.70;;;17.80;58.10;;;;;;4775028;30;20119;-86
2021/09/03 21:13:10;;;;;;;11.15;7.03;;;17.60;58.20;;;;;;4775551;30;20408;-84
2021/09/03 21:15:39;;;;;;;12.70;7.35;;;17.50;58.40;;;;;;4775230;30;20122;-85
2021/09/03 21:18:06;;;;;;;11.35;6.70;;;17.50;58.80;;;;;;4775099;30;20500;-87
2021/09/03 21:20:38;;;;;;;11.10;6.82;;;17.40;58.80;;;;;;4775742;30;20034;-88
2021/09/03 21:23:10;;;;;;;10.80;6.50;;;17.40;59.10;;;;;;4773908;30;20082;-88
2021/09/03 21:25:36;;;;;;;11.00;7.20;;;17.30;59.50;;;;;;4758257;30;20032;-88
2021/09/03 21:28:06;;;;;;;11.57;6.90;;;17.30;59.50;;;;;;4758818;30;20085;-88
2021/09/03 21:30:32;;;;;;;12.30;7.65;;;17.20;59.70;;;;;;4758267;30;20052;-88
2021/09/03 21:32:59;;;;;;;11.85;6.88;;;17.20;59.90;;;;;;4758467;30;20127;-87
2021/09/03 21:35:25;;;;;;;11.25;6.82;;;17.30;60.20;;;;;;4759443;30;20095;-89
2021/09/03 21:37:52;;;;;;;12.50;6.80;;;17.10;60.20;;;;;;4773357;30;20062;-88
2021/09/03 21:40:19;;;;;;;12.13;6.65;;;17.10;60.40;;;;;;4776485;30;20549;-89
2021/09/03 21:42:46;;;;;;;11.75;6.95;;;17.00;60.70;;;;;;4774275;30;20491;-87
2021/09/03 21:45:13;;;;;;;11.77;7.18;;;17.10;61.00;;;;;;4773638;30;20485;-88
2021/09/03 21:47:40;;;;;;;12.23;6.88;;;17.10;61.10;;;;;;4774170;30;20461;-88
2021/09/03 21:50:09;;;;;;;10.45;7.22;;;16.90;61.20;;;;;;4774499;30;20126;-90
2021/09/03 21:52:40;;;;;;;11.80;6.85;;;16.80;61.40;;;;;;4773572;30;20039;-86
2021/09/03 21:55:07;;;;;;;13.50;7.70;;;16.70;61.50;;;;;;4773948;30;20027;-84
2021/09/03 21:57:33;;;;;;;10.63;6.68;;;16.70;61.60;;;;;;4758385;30;20044;-84
2021/09/03 21:59:59;;;;;;;11.23;7.10;;;16.60;61.80;;;;;;4789432;30;20043;-84
2021/09/03 22:02:25;;;;;;;12.55;7.60;;;16.50;62.00;;;;;;4789650;30;20126;-85
2021/09/03 22:04:51;;;;;;;14.18;7.85;;;16.60;62.20;;;;;;4773201;30;20067;-85
2021/09/03 22:07:17;;;;;;;13.35;8.13;;;16.50;62.30;;;;;;4773163;30;20035;-85
2021/09/03 22:09:44;;;;;;;11.52;7.75;;;16.30;62.30;;;;;;4789053;30;20561;-85
2021/09/03 22:12:10;;;;;;;12.82;7.78;;;16.50;62.60;;;;;;4756273;30;20076;-87
2021/09/03 22:14:39;;;;;;;13.88;7.90;;;16.40;62.80;;;;;;4772986;30;20456;-86
2021/09/03 22:17:05;;;;;;;11.32;7.63;;;16.20;62.80;;;;;;4772708;30;20712;-86
2021/09/03 22:19:31;;;;;;;11.18;7.35;;;16.30;63.10;;;;;;4770484;30;20070;-87
2021/09/03 22:21:59;;;;;;;13.27;7.93;;;16.20;63.20;;;;;;4772442;30;20063;-86
2021/09/03 22:24:32;;;;;;;12.05;8.52;;;16.10;63.40;;;;;;4772817;29;20118;-86
2021/09/03 22:26:57;;;;;;;12.60;8.23;;;16.10;63.50;;;;;;4772824;30;20076;-86
2021/09/03 22:29:23;;;;;;;12.00;8.40;;;16.10;63.70;;;;;;4757835;30;20051;-85
2021/09/03 22:31:49;;;;;;;12.80;8.00;;;16.00;63.80;;;;;;4772935;30;20549;-86
2021/09/03 22:34:14;;;;;;;11.93;8.30;;;15.90;63.90;;;;;;4772927;30;20032;-86
2021/09/03 22:36:49;;;;;;;13.55;8.45;;;15.90;64.10;;;;;;4772760;30;20388;-86
2021/09/03 22:39:16;;;;;;;11.80;8.48;;;15.80;64.20;;;;;;4772470;30;20382;-86
2021/09/03 22:41:45;;;;;;;12.68;8.95;;;15.90;64.40;;;;;;4772705;30;20028;-85
2021/09/03 22:44:11;;;;;;;12.65;8.70;;;15.60;64.40;;;;;;4772897;30;20035;-86
2021/09/03 22:46:37;;;;;;;13.35;8.40;;;15.90;64.90;;;;;;4788592;30;20039;-86
2021/09/03 22:49:02;;;;;;;11.90;8.27;;;15.50;64.70;;;;;;4772888;30;20067;-86
2021/09/03 22:51:29;;;;;;;12.80;8.18;;;15.50;64.90;;;;;;4772785;30;20084;-86
2021/09/03 22:53:55;;;;;;;11.55;7.78;;;15.40;65.10;;;;;;4770460;30;20036;-86
2021/09/03 22:56:20;;;;;;;13.93;8.05;;;15.60;65.30;;;;;;4786781;30;20031;-87
2021/09/03 22:58:49;;;;;;;11.32;8.13;;;15.50;65.50;;;;;;4770365;30;20664;-86
2021/09/03 23:01:15;;;;;;;12.07;7.80;;;15.30;65.60;;;;;;4770869;30;20385;-86
2021/09/03 23:03:40;;;;;;;12.35;8.48;;;15.20;65.60;;;;;;4755838;30;20031;-86
2021/09/03 23:06:06;;;;;;;13.15;8.52;;;15.30;65.80;;;;;;4770816;30;20035;-87
2021/09/03 23:08:32;;;;;;;13.60;9.68;;;15.50;66.10;;;;;;4772002;30;20027;-86
2021/09/03 23:10:58;;;;;;;11.10;8.25;;;15.30;66.20;;;;;;4774186;30;20028;-87
2021/09/03 23:13:24;;;;;;;12.07;9.02;;;15.10;66.20;;;;;;4777006;30;20534;-86
2021/09/03 23:15:49;;;;;;;13.05;9.43;;;15.20;66.40;;;;;;4772412;30;20092;-86
2021/09/03 23:18:25;;;;;;;13.57;9.57;;;15.00;66.50;;;;;;4757587;30;20035;-87
2021/09/03 23:20:51;;;;;;;14.70;9.27;;;14.90;66.60;;;;;;4772151;30;20122;-86
2021/09/03 23:23:17;;;;;;;13.43;8.98;;;15.20;66.90;;;;;;4772448;30;20124;-86
2021/09/03 23:25:42;;;;;;;13.32;9.25;;;15.00;66.90;;;;;;4757639;30;20448;-86
2021/09/03 23:28:08;;;;;;;13.23;9.30;;;14.90;67.00;;;;;;4787180;30;20079;-86
2021/09/03 23:30:36;;;;;;;13.23;9.15;;;14.80;67.10;;;;;;4772646;30;20065;-86
2021/09/03 23:33:04;;;;;;;12.90;8.90;;;14.80;67.20;;;;;;4773017;30;20461;-86
2021/09/03 23:35:33;;;;;;;13.02;8.95;;;14.60;67.20;;;;;;4772178;30;20538;-86
2021/09/03 23:37:59;;;;;;;13.48;9.60;;;14.90;67.50;;;;;;4774430;30;20114;-85
2021/09/03 23:40:24;;;;;;;16.83;9.75;;;14.50;67.40;;;;;;4775954;30;20122;-85
2021/09/03 23:42:53;;;;;;;12.52;9.40;;;14.70;67.70;;;;;;4775720;30;20023;-85
2021/09/03 23:45:27;;;;;;;13.35;9.88;;;14.40;67.80;;;;;;4790699;30;20035;-85
2021/09/03 23:47:56;;;;;;;15.38;10.18;;;14.40;67.90;;;;;;4775978;30;20494;-85
2021/09/03 23:50:22;;;;;;;12.73;9.38;;;14.60;68.10;;;;;;4775536;30;20035;-85
2021/09/03 23:52:47;;;;;;;15.30;8.85;;;14.30;68.10;;;;;;4760701;30;20076;-85
2021/09/03 23:55:16;;;;;;;13.50;10.43;;;14.30;68.20;;;;;;4775381;30;20373;-85
2021/09/03 23:57:41;;;;;;;14.35;10.20;;;14.20;68.20;;;;;;4775654;30;20031;-85
